Aérodrome :
LOGIN :

S'inscrire | Disclaimer

   EN    FR    IT 

 










Légende :    VFR   VFR Marginal   IFR   IFR Intensif   IFR Très Intensif
Visi : 
Plafond : 
>= 8 km
>= 3000ft
5 à 8 km
1000 à 3000 ft
1500m à 5 km
500 à 1000 ft
800 à 1500m
200 à 500 ft
< 800m
< 200 ft
Symboles :   Orages  Brouillard  Fortes neiges  Fortes précipitations  Vent > 20 kt
SIGMETs :   Divers  Orages  Givrage  Turbulence  Onde Orograph.  Cendres Volcan.






- Altitude de l'aérodrome : 586 ft
- Code IATA : IEV


UKKK - Zhuliany

DERNIER METAR :
  • 051030Z 36006MPS 320V070 CAVOK 11/M10 Q1032 R26/190060 NOSIG

METARs EXPIRÉS :
  • 051000Z 34007G12MPS 310V010 CAVOK 11/M10 Q1032 R26/190060 NOSIG
  • 050930Z 34006MPS 300V010 CAVOK 10/M07 Q1032 R26/190060 NOSIG
  • 050900Z 32007G14MPS 290V010 CAVOK 10/M07 Q1032 R26/190060 NOSIG
  • 050830Z 33007G14MPS 300V020 CAVOK 09/M06 Q1032 R26/190060 NOSIG

TAF AMD TAF UKKK
Valide du 05 à 08h jusqu'au 06 à 06h UTC


050830Z 0508/0606 32006G11MPS 9999 SCT020 TX11/0512Z TNM02/0603Z
TEMPO 0508/0516 35009G14MPS
BECMG 0516/0618 VRB01MPS 3000 FU SCT012
TEMPO 0518/0606 1000 FU



MET'MAP, la Météo Aéronautique d'un coup d'oeil ! - Copyright ORBIFLY Décembre 2007 - Disclaimer

ORBIFLY MET'MAP TEAM :

Programmation & Développement : Alexandra Zaïnal
Sur une idée originale de : Baudouin d'Aumeries
Assistance à la programmation : Marc-Olivier Méhu
Soutien technique & logistique : Manuel Goepfert

Contact : metmap@orbifly.com




SOURCES & CREDITS :

   NOAA